IBE74 LEBL-LIRF
Flight info
| Callsign | IBE74 |
|---|---|
| Flight time | 1h 17m |
| Altitude | 330 |
| Route | DIPES N725 OSPOK DCT NOLVI DCT ORKUM DCT ELSAG DCT ALG DCT ROMPO DCT RUXOP DCT BATOX DCT TINTO L5 VALMA |
| Aircraft | A20N/M-SDE2E3FGHIRWXY/LB1 |
Departure
| Time | 2026-05-07 20:07 |
|---|---|
| Airport | Josep Tarradellas Barcelona-El Prat Airport (LEBL) |
Arrival
| Time | 2026-05-07 21:24 |
|---|---|
| Airport | Rome–Fiumicino Leonardo da Vinci International Airport (LIRF) |
| Time | Latitude | Longitude | Altitude | Speed | Heading |
|---|---|---|---|---|---|
| 2026-05-07 19:44 | 41.30189 | 2.07799 | 27 ft | 0 kts | 302° |
| 2026-05-07 19:51 | 41.30181 | 2.07816 | 25 ft | 2 kts | 301° |
| 2026-05-07 19:51 | 41.30172 | 2.07835 | 24 ft | 2 kts | 302° |
| 2026-05-07 19:51 | 41.30164 | 2.07853 | 25 ft | 2 kts | 301° |
| 2026-05-07 19:52 | 41.30155 | 2.07872 | 25 ft | 2 kts | 301° |
| 2026-05-07 19:52 | 41.30147 | 2.07891 | 24 ft | 2 kts | 301° |
| 2026-05-07 19:52 | 41.30139 | 2.07909 | 24 ft | 2 kts | 299° |
| 2026-05-07 19:52 | 41.30131 | 2.07929 | 23 ft | 2 kts | 292° |
| 2026-05-07 19:53 | 41.30128 | 2.07946 | 23 ft | 1 kts | 256° |
| 2026-05-07 19:53 | 41.30129 | 2.07948 | 23 ft | 0 kts | 254° |
| 2026-05-07 19:55 | 41.30128 | 2.07947 | 21 ft | 1 kts | 254° |
| 2026-05-07 19:55 | 41.30121 | 2.07926 | 21 ft | 6 kts | 245° |
| 2026-05-07 19:55 | 41.30091 | 2.07837 | 21 ft | 14 kts | 246° |
| 2026-05-07 19:55 | 41.30041 | 2.07691 | 21 ft | 19 kts | 245° |
| 2026-05-07 19:56 | 41.29993 | 2.07551 | 21 ft | 11 kts | 246° |
| 2026-05-07 19:56 | 41.29959 | 2.07451 | 21 ft | 13 kts | 245° |
| 2026-05-07 19:56 | 41.29914 | 2.07321 | 21 ft | 13 kts | 244° |
| 2026-05-07 19:56 | 41.29876 | 2.07212 | 22 ft | 10 kts | 246° |
| 2026-05-07 19:57 | 41.29824 | 2.07176 | 19 ft | 12 kts | 162° |
| 2026-05-07 19:57 | 41.29747 | 2.07211 | 19 ft | 11 kts | 184° |
| 2026-05-07 19:57 | 41.29724 | 2.07177 | 19 ft | 8 kts | 240° |
| 2026-05-07 19:57 | 41.29698 | 2.07096 | 19 ft | 9 kts | 246° |
| 2026-05-07 19:58 | 41.29671 | 2.07054 | 19 ft | 5 kts | 183° |
| 2026-05-07 19:58 | 41.29633 | 2.07067 | 20 ft | 3 kts | 156° |
| 2026-05-07 19:58 | 41.29622 | 2.07073 | 18 ft | 0 kts | 156° |
| 2026-05-07 20:03 | 41.29601 | 2.07086 | 19 ft | 11 kts | 156° |
| 2026-05-07 20:03 | 41.29570 | 2.07105 | 18 ft | 0 kts | 156° |
| 2026-05-07 20:05 | 41.29564 | 2.07108 | 18 ft | 4 kts | 156° |
| 2026-05-07 20:05 | 41.29510 | 2.07140 | 20 ft | 12 kts | 156° |
| 2026-05-07 20:05 | 41.29492 | 2.07225 | 20 ft | 11 kts | 57° |
| 2026-05-07 20:05 | 41.29513 | 2.07281 | 22 ft | 0 kts | 66° |
| 2026-05-07 20:06 | 41.29525 | 2.07316 | -4 ft | 23 kts | 66° |
| 2026-05-07 20:06 | 41.29693 | 2.07798 | 19 ft | 89 kts | 65° |
| 2026-05-07 20:07 | 41.30029 | 2.08780 | 27 ft | 145 kts | 65° |
| 2026-05-07 20:07 | 41.30443 | 2.10060 | 481 ft | 145 kts | 67° |
| 2026-05-07 20:07 | 41.30875 | 2.11351 | 965 ft | 157 kts | 65° |
| 2026-05-07 20:07 | 41.31352 | 2.12712 | 1349 ft | 175 kts | 65° |
| 2026-05-07 20:08 | 41.31904 | 2.14297 | 1657 ft | 201 kts | 65° |
| 2026-05-07 20:08 | 41.32508 | 2.16048 | 2148 ft | 217 kts | 66° |
| 2026-05-07 20:08 | 41.32984 | 2.18103 | 2469 ft | 245 kts | 85° |
| 2026-05-07 20:08 | 41.32832 | 2.20381 | 3139 ft | 254 kts | 98° |
| 2026-05-07 20:09 | 41.32663 | 2.22727 | 4008 ft | 256 kts | 94° |
| 2026-05-07 20:09 | 41.32555 | 2.25137 | 4984 ft | 258 kts | 93° |
| 2026-05-07 20:09 | 41.32467 | 2.27505 | 5916 ft | 261 kts | 93° |
| 2026-05-07 20:10 | 41.32304 | 2.32423 | 7627 ft | 270 kts | 92° |
| 2026-05-07 20:10 | 41.32224 | 2.34941 | 8506 ft | 273 kts | 92° |
| 2026-05-07 20:10 | 41.32143 | 2.37495 | 9327 ft | 279 kts | 92° |
| 2026-05-07 20:10 | 41.32047 | 2.40098 | 10139 ft | 283 kts | 96° |
| 2026-05-07 20:11 | 41.31718 | 2.42733 | 10586 ft | 301 kts | 101° |
| 2026-05-07 20:11 | 41.31237 | 2.45556 | 10879 ft | 324 kts | 103° |
| 2026-05-07 20:11 | 41.30354 | 2.48414 | 11165 ft | 345 kts | 123° |
| 2026-05-07 20:11 | 41.28708 | 2.50769 | 11679 ft | 358 kts | 139° |
| 2026-05-07 20:12 | 41.26731 | 2.52858 | 12362 ft | 365 kts | 142° |
| 2026-05-07 20:12 | 41.24805 | 2.55096 | 13082 ft | 370 kts | 131° |
| 2026-05-07 20:12 | 41.23301 | 2.57887 | 13782 ft | 375 kts | 116° |
| 2026-05-07 20:12 | 41.22293 | 2.61096 | 14454 ft | 378 kts | 108° |
| 2026-05-07 20:13 | 41.21538 | 2.64490 | 15112 ft | 384 kts | 104° |
| 2026-05-07 20:13 | 41.20940 | 2.67925 | 15797 ft | 387 kts | 103° |
| 2026-05-07 20:13 | 41.20398 | 2.71447 | 16590 ft | 389 kts | 102° |
| 2026-05-07 20:13 | 41.19863 | 2.74997 | 17270 ft | 393 kts | 103° |
| 2026-05-07 20:14 | 41.19316 | 2.78537 | 17920 ft | 398 kts | 103° |
| 2026-05-07 20:14 | 41.18737 | 2.82154 | 18516 ft | 403 kts | 104° |
| 2026-05-07 20:14 | 41.18133 | 2.85809 | 19088 ft | 406 kts | 104° |
| 2026-05-07 20:14 | 41.17512 | 2.89487 | 19681 ft | 409 kts | 104° |
| 2026-05-07 20:15 | 41.16886 | 2.93151 | 20254 ft | 412 kts | 104° |
| 2026-05-07 20:15 | 41.16244 | 2.96886 | 20828 ft | 416 kts | 104° |
| 2026-05-07 20:15 | 41.15596 | 3.00641 | 21399 ft | 419 kts | 104° |
| 2026-05-07 20:15 | 41.14939 | 3.04445 | 21962 ft | 422 kts | 105° |
| 2026-05-07 20:16 | 41.14290 | 3.08209 | 22557 ft | 424 kts | 105° |
| 2026-05-07 20:16 | 41.13626 | 3.12051 | 23114 ft | 427 kts | 105° |
| 2026-05-07 20:16 | 41.12962 | 3.15880 | 23616 ft | 431 kts | 105° |
| 2026-05-07 20:16 | 41.12280 | 3.19805 | 24043 ft | 435 kts | 105° |
| 2026-05-07 20:17 | 41.11601 | 3.23710 | 24501 ft | 438 kts | 105° |
| 2026-05-07 20:17 | 41.10919 | 3.27624 | 24953 ft | 440 kts | 105° |
| 2026-05-07 20:17 | 41.10222 | 3.31615 | 25406 ft | 443 kts | 105° |
| 2026-05-07 20:17 | 41.09524 | 3.35606 | 25840 ft | 445 kts | 106° |
| 2026-05-07 20:18 | 41.09058 | 3.38265 | 26123 ft | 447 kts | 106° |
| 2026-05-07 20:18 | 41.08119 | 3.43607 | 26681 ft | 450 kts | 106° |
| 2026-05-07 20:18 | 41.07401 | 3.47676 | 26953 ft | 456 kts | 106° |
| 2026-05-07 20:18 | 41.06919 | 3.50402 | 27141 ft | 459 kts | 106° |
| 2026-05-07 20:19 | 41.06188 | 3.54538 | 27531 ft | 461 kts | 106° |
| 2026-05-07 20:19 | 41.05458 | 3.58658 | 27924 ft | 463 kts | 106° |
| 2026-05-07 20:19 | 41.04718 | 3.62828 | 28308 ft | 466 kts | 106° |
| 2026-05-07 20:19 | 41.03970 | 3.67033 | 28691 ft | 468 kts | 107° |
| 2026-05-07 20:20 | 41.03224 | 3.71220 | 29196 ft | 467 kts | 107° |
| 2026-05-07 20:20 | 41.02476 | 3.75410 | 29727 ft | 465 kts | 107° |
| 2026-05-07 20:20 | 41.01730 | 3.79578 | 30206 ft | 464 kts | 107° |
| 2026-05-07 20:20 | 41.00979 | 3.83754 | 30416 ft | 469 kts | 108° |
| 2026-05-07 20:21 | 41.00221 | 3.87939 | 30545 ft | 474 kts | 108° |
| 2026-05-07 20:21 | 40.99449 | 3.92192 | 30965 ft | 473 kts | 108° |
| 2026-05-07 20:21 | 40.98683 | 3.96419 | 31435 ft | 470 kts | 108° |
| 2026-05-07 20:21 | 40.97918 | 4.00629 | 31858 ft | 468 kts | 108° |
| 2026-05-07 20:22 | 40.97160 | 4.04790 | 32249 ft | 467 kts | 108° |
| 2026-05-07 20:22 | 40.96398 | 4.08967 | 32632 ft | 466 kts | 108° |
| 2026-05-07 20:22 | 40.95643 | 4.13084 | 32937 ft | 467 kts | 108° |
| 2026-05-07 20:23 | 40.94103 | 4.21461 | 32976 ft | 466 kts | 108° |
| 2026-05-07 20:23 | 40.92570 | 4.29770 | 32985 ft | 463 kts | 108° |
| 2026-05-07 20:24 | 40.91044 | 4.38009 | 32995 ft | 463 kts | 108° |
| 2026-05-07 20:24 | 40.89499 | 4.46304 | 32984 ft | 463 kts | 108° |
| 2026-05-07 20:25 | 40.87958 | 4.54571 | 32996 ft | 463 kts | 108° |
| 2026-05-07 20:25 | 40.86413 | 4.62838 | 32992 ft | 463 kts | 109° |
| 2026-05-07 20:26 | 40.85286 | 4.71268 | 32991 ft | 468 kts | 102° |
| 2026-05-07 20:26 | 40.84461 | 4.79745 | 32983 ft | 468 kts | 101° |
| 2026-05-07 20:27 | 40.83679 | 4.88319 | 32988 ft | 468 kts | 101° |
| 2026-05-07 20:27 | 40.82894 | 4.96850 | 32972 ft | 468 kts | 102° |
| 2026-05-07 20:28 | 40.82093 | 5.05376 | 32981 ft | 470 kts | 102° |
| 2026-05-07 20:28 | 40.81275 | 5.13965 | 32981 ft | 470 kts | 102° |
| 2026-05-07 20:29 | 40.80455 | 5.22506 | 32984 ft | 470 kts | 102° |
| 2026-05-07 20:29 | 40.79625 | 5.31080 | 32982 ft | 470 kts | 102° |
| 2026-05-07 20:30 | 40.78793 | 5.39615 | 32983 ft | 470 kts | 102° |
| 2026-05-07 20:30 | 40.77956 | 5.48132 | 32978 ft | 470 kts | 102° |
| 2026-05-07 20:31 | 40.77105 | 5.56721 | 32977 ft | 470 kts | 103° |
| 2026-05-07 20:31 | 40.76257 | 5.65220 | 32977 ft | 470 kts | 103° |
| 2026-05-07 20:32 | 40.75400 | 5.73748 | 32966 ft | 470 kts | 103° |
| 2026-05-07 20:32 | 40.74529 | 5.82336 | 32984 ft | 471 kts | 103° |
| 2026-05-07 20:33 | 40.73656 | 5.90889 | 32972 ft | 471 kts | 103° |
| 2026-05-07 20:33 | 40.72779 | 5.99416 | 32976 ft | 471 kts | 103° |
| 2026-05-07 20:34 | 40.71892 | 6.07965 | 32976 ft | 471 kts | 103° |
| 2026-05-07 20:34 | 40.70996 | 6.16521 | 32969 ft | 473 kts | 104° |
| 2026-05-07 20:35 | 40.70088 | 6.25134 | 32968 ft | 474 kts | 104° |
| 2026-05-07 20:35 | 40.69181 | 6.33689 | 32966 ft | 474 kts | 104° |
| 2026-05-07 20:36 | 40.68263 | 6.42288 | 32963 ft | 474 kts | 104° |
| 2026-05-07 20:36 | 40.67337 | 6.50892 | 32965 ft | 476 kts | 105° |
| 2026-05-07 20:37 | 40.66397 | 6.59535 | 32961 ft | 480 kts | 105° |
| 2026-05-07 20:37 | 40.65445 | 6.68264 | 32960 ft | 480 kts | 105° |
| 2026-05-07 20:38 | 40.64494 | 6.76927 | 32957 ft | 480 kts | 105° |
| 2026-05-07 20:38 | 40.63532 | 6.85623 | 32936 ft | 480 kts | 105° |
| 2026-05-07 20:39 | 40.62551 | 6.94395 | 32959 ft | 484 kts | 105° |
| 2026-05-07 20:39 | 40.61567 | 7.03138 | 32955 ft | 485 kts | 105° |
| 2026-05-07 20:40 | 40.60572 | 7.11950 | 32953 ft | 485 kts | 105° |
| 2026-05-07 20:40 | 40.59577 | 7.20693 | 32952 ft | 485 kts | 105° |
| 2026-05-07 20:41 | 40.58570 | 7.29477 | 32949 ft | 485 kts | 105° |
| 2026-05-07 20:41 | 40.57561 | 7.38211 | 32949 ft | 485 kts | 106° |
| 2026-05-07 20:42 | 40.56671 | 7.47031 | 32951 ft | 491 kts | 98° |
| 2026-05-07 20:42 | 40.57032 | 7.56049 | 32949 ft | 498 kts | 90° |
| 2026-05-07 20:43 | 40.57789 | 7.65168 | 32947 ft | 501 kts | 88° |
| 2026-05-07 20:43 | 40.58612 | 7.74268 | 32947 ft | 502 kts | 88° |
| 2026-05-07 20:44 | 40.59411 | 7.83350 | 32944 ft | 502 kts | 89° |
| 2026-05-07 20:44 | 40.60189 | 7.92497 | 32940 ft | 502 kts | 89° |
| 2026-05-07 20:45 | 40.60945 | 8.01589 | 32939 ft | 502 kts | 89° |
| 2026-05-07 20:45 | 40.61701 | 8.10745 | 32938 ft | 504 kts | 89° |
| 2026-05-07 20:46 | 40.62458 | 8.19913 | 32940 ft | 504 kts | 87° |
| 2026-05-07 20:46 | 40.64292 | 8.28891 | 32942 ft | 512 kts | 72° |
| 2026-05-07 20:47 | 40.66926 | 8.37640 | 32937 ft | 513 kts | 69° |
| 2026-05-07 20:47 | 40.69683 | 8.46268 | 32934 ft | 512 kts | 69° |
| 2026-05-07 20:48 | 40.72436 | 8.54906 | 32941 ft | 512 kts | 69° |
| 2026-05-07 20:48 | 40.75171 | 8.63599 | 32936 ft | 512 kts | 70° |
| 2026-05-07 20:49 | 40.77871 | 8.72249 | 32919 ft | 511 kts | 69° |
| 2026-05-07 20:49 | 40.80559 | 8.80897 | 32953 ft | 509 kts | 69° |
| 2026-05-07 20:50 | 40.83239 | 8.89545 | 32942 ft | 510 kts | 69° |
| 2026-05-07 20:50 | 40.85922 | 8.98226 | 32943 ft | 510 kts | 69° |
| 2026-05-07 20:51 | 40.88591 | 9.06886 | 32948 ft | 510 kts | 69° |
| 2026-05-07 20:51 | 40.91262 | 9.15585 | 32952 ft | 509 kts | 69° |
| 2026-05-07 20:52 | 40.93909 | 9.24234 | 32954 ft | 509 kts | 69° |
| 2026-05-07 20:52 | 40.96556 | 9.32907 | 32956 ft | 509 kts | 69° |
| 2026-05-07 20:53 | 40.99185 | 9.41554 | 32984 ft | 508 kts | 69° |
| 2026-05-07 20:53 | 41.01825 | 9.50266 | 32982 ft | 509 kts | 69° |
| 2026-05-07 20:54 | 41.04458 | 9.58980 | 32985 ft | 509 kts | 69° |
| 2026-05-07 20:54 | 41.07064 | 9.67634 | 32979 ft | 509 kts | 69° |
| 2026-05-07 20:55 | 41.09689 | 9.76380 | 32970 ft | 509 kts | 69° |
| 2026-05-07 20:55 | 41.12271 | 9.85082 | 32948 ft | 509 kts | 69° |
| 2026-05-07 20:56 | 41.14849 | 9.93850 | 32962 ft | 509 kts | 69° |
| 2026-05-07 20:56 | 41.17416 | 10.02596 | 32963 ft | 507 kts | 69° |
| 2026-05-07 20:57 | 41.19985 | 10.11269 | 32966 ft | 507 kts | 69° |
| 2026-05-07 20:57 | 41.22577 | 10.20006 | 32963 ft | 507 kts | 69° |
| 2026-05-07 20:58 | 41.25145 | 10.28694 | 32963 ft | 507 kts | 69° |
| 2026-05-07 20:58 | 41.27716 | 10.37427 | 32963 ft | 507 kts | 69° |
| 2026-05-07 20:59 | 41.30283 | 10.46181 | 32977 ft | 506 kts | 69° |
| 2026-05-07 20:59 | 41.32810 | 10.54826 | 32960 ft | 503 kts | 69° |
| 2026-05-07 21:00 | 41.35345 | 10.63531 | 32822 ft | 503 kts | 69° |
| 2026-05-07 21:00 | 41.36613 | 10.67894 | 32564 ft | 503 kts | 69° |
| 2026-05-07 21:00 | 41.37861 | 10.72194 | 32301 ft | 503 kts | 69° |
| 2026-05-07 21:00 | 41.39127 | 10.76565 | 32042 ft | 503 kts | 69° |
| 2026-05-07 21:01 | 41.40383 | 10.80911 | 31695 ft | 501 kts | 69° |
| 2026-05-07 21:01 | 41.41639 | 10.85262 | 30736 ft | 507 kts | 70° |
| 2026-05-07 21:01 | 41.42915 | 10.89693 | 29650 ft | 515 kts | 70° |
| 2026-05-07 21:01 | 41.44194 | 10.94141 | 29036 ft | 510 kts | 70° |
| 2026-05-07 21:02 | 41.45457 | 10.98536 | 28320 ft | 507 kts | 70° |
| 2026-05-07 21:02 | 41.46717 | 11.02931 | 27535 ft | 506 kts | 70° |
| 2026-05-07 21:02 | 41.47969 | 11.07316 | 26728 ft | 505 kts | 70° |
| 2026-05-07 21:02 | 41.49193 | 11.11648 | 25885 ft | 505 kts | 70° |
| 2026-05-07 21:03 | 41.50445 | 11.16099 | 25102 ft | 504 kts | 71° |
| 2026-05-07 21:03 | 41.51655 | 11.20406 | 24443 ft | 500 kts | 71° |
| 2026-05-07 21:03 | 41.52878 | 11.24766 | 23814 ft | 495 kts | 71° |
| 2026-05-07 21:03 | 41.54066 | 11.29008 | 23105 ft | 490 kts | 71° |
| 2026-05-07 21:04 | 41.55252 | 11.33250 | 22397 ft | 484 kts | 71° |
| 2026-05-07 21:04 | 41.56419 | 11.37430 | 21739 ft | 477 kts | 71° |
| 2026-05-07 21:04 | 41.57568 | 11.41547 | 21290 ft | 467 kts | 70° |
| 2026-05-07 21:04 | 41.58695 | 11.45547 | 21027 ft | 453 kts | 70° |
| 2026-05-07 21:05 | 41.59797 | 11.49444 | 20791 ft | 439 kts | 70° |
| 2026-05-07 21:05 | 41.60847 | 11.53163 | 20577 ft | 426 kts | 70° |
| 2026-05-07 21:05 | 41.61875 | 11.56810 | 20384 ft | 413 kts | 70° |
| 2026-05-07 21:05 | 41.62871 | 11.60348 | 20203 ft | 401 kts | 70° |
| 2026-05-07 21:06 | 41.63849 | 11.63821 | 19942 ft | 405 kts | 69° |
| 2026-05-07 21:06 | 41.65101 | 11.67184 | 19685 ft | 402 kts | 57° |
| 2026-05-07 21:06 | 41.66874 | 11.70006 | 19394 ft | 393 kts | 41° |
| 2026-05-07 21:06 | 41.69141 | 11.71996 | 18892 ft | 389 kts | 23° |
| 2026-05-07 21:07 | 41.70801 | 11.72881 | 18563 ft | 387 kts | 18° |
| 2026-05-07 21:07 | 41.73346 | 11.74024 | 18073 ft | 385 kts | 17° |
| 2026-05-07 21:07 | 41.76715 | 11.75458 | 17409 ft | 381 kts | 16° |
| 2026-05-07 21:07 | 41.79231 | 11.76526 | 16940 ft | 377 kts | 17° |
| 2026-05-07 21:08 | 41.80915 | 11.77244 | 16638 ft | 374 kts | 16° |
| 2026-05-07 21:08 | 41.83379 | 11.78298 | 16205 ft | 370 kts | 16° |
| 2026-05-07 21:08 | 41.85795 | 11.79333 | 15745 ft | 367 kts | 17° |
| 2026-05-07 21:08 | 41.88223 | 11.80377 | 15278 ft | 364 kts | 17° |
| 2026-05-07 21:09 | 41.90632 | 11.81413 | 14825 ft | 361 kts | 17° |
| 2026-05-07 21:09 | 41.93012 | 11.82438 | 14396 ft | 358 kts | 17° |
| 2026-05-07 21:09 | 41.95372 | 11.83456 | 14033 ft | 352 kts | 17° |
| 2026-05-07 21:09 | 41.97695 | 11.84459 | 13621 ft | 348 kts | 17° |
| 2026-05-07 21:10 | 41.99986 | 11.85449 | 13156 ft | 345 kts | 17° |
| 2026-05-07 21:10 | 42.02233 | 11.86421 | 12692 ft | 342 kts | 17° |
| 2026-05-07 21:10 | 42.04493 | 11.87399 | 12236 ft | 339 kts | 17° |
| 2026-05-07 21:10 | 42.06740 | 11.88308 | 11778 ft | 336 kts | 12° |
| 2026-05-07 21:11 | 42.09038 | 11.88569 | 11325 ft | 331 kts | 351° |
| 2026-05-07 21:11 | 42.11267 | 11.87871 | 10884 ft | 327 kts | 342° |
| 2026-05-07 21:11 | 42.15545 | 11.86021 | 9993 ft | 321 kts | 341° |
| 2026-05-07 21:12 | 42.17659 | 11.85094 | 9523 ft | 318 kts | 341° |
| 2026-05-07 21:12 | 42.19762 | 11.84187 | 9005 ft | 317 kts | 343° |
| 2026-05-07 21:12 | 42.21920 | 11.83631 | 8486 ft | 316 kts | 354° |
| 2026-05-07 21:12 | 42.24113 | 11.83701 | 7983 ft | 315 kts | 10° |
| 2026-05-07 21:13 | 42.26147 | 11.84699 | 7493 ft | 313 kts | 32° |
| 2026-05-07 21:13 | 42.27718 | 11.86686 | 7006 ft | 309 kts | 57° |
| 2026-05-07 21:13 | 42.28523 | 11.89350 | 6523 ft | 305 kts | 82° |
| 2026-05-07 21:13 | 42.28404 | 11.92127 | 6023 ft | 301 kts | 109° |
| 2026-05-07 21:14 | 42.27430 | 11.94591 | 5523 ft | 298 kts | 130° |
| 2026-05-07 21:14 | 42.25851 | 11.96369 | 5020 ft | 296 kts | 148° |
| 2026-05-07 21:14 | 42.24053 | 11.97714 | 4536 ft | 295 kts | 151° |
| 2026-05-07 21:14 | 42.22231 | 11.98981 | 4121 ft | 291 kts | 151° |
| 2026-05-07 21:15 | 42.20472 | 12.00203 | 3997 ft | 276 kts | 153° |
| 2026-05-07 21:15 | 42.18753 | 12.01109 | 3981 ft | 254 kts | 160° |
| 2026-05-07 21:15 | 42.17158 | 12.01793 | 4096 ft | 226 kts | 161° |
| 2026-05-07 21:15 | 42.15734 | 12.02384 | 4075 ft | 202 kts | 161° |
| 2026-05-07 21:16 | 42.14444 | 12.02922 | 3934 ft | 187 kts | 161° |
| 2026-05-07 21:16 | 42.13233 | 12.03432 | 3651 ft | 179 kts | 160° |
| 2026-05-07 21:16 | 42.12084 | 12.04045 | 3504 ft | 177 kts | 148° |
| 2026-05-07 21:16 | 42.11126 | 12.05060 | 3417 ft | 175 kts | 132° |
| 2026-05-07 21:17 | 42.10283 | 12.06244 | 3323 ft | 175 kts | 129° |
| 2026-05-07 21:17 | 42.09462 | 12.07459 | 3235 ft | 175 kts | 128° |
| 2026-05-07 21:17 | 42.08641 | 12.08674 | 3155 ft | 176 kts | 128° |
| 2026-05-07 21:17 | 42.07815 | 12.09892 | 3052 ft | 176 kts | 128° |
| 2026-05-07 21:18 | 42.06988 | 12.11107 | 2956 ft | 176 kts | 128° |
| 2026-05-07 21:18 | 42.06161 | 12.12320 | 2874 ft | 176 kts | 128° |
| 2026-05-07 21:18 | 42.05333 | 12.13534 | 2772 ft | 176 kts | 128° |
| 2026-05-07 21:18 | 42.04508 | 12.14743 | 2679 ft | 175 kts | 128° |
| 2026-05-07 21:19 | 42.03683 | 12.15951 | 2660 ft | 175 kts | 128° |
| 2026-05-07 21:19 | 42.02856 | 12.17161 | 2662 ft | 175 kts | 128° |
| 2026-05-07 21:19 | 42.02009 | 12.18327 | 2654 ft | 174 kts | 136° |
| 2026-05-07 21:19 | 42.01022 | 12.19148 | 2465 ft | 167 kts | 152° |
| 2026-05-07 21:20 | 41.99933 | 12.19697 | 2473 ft | 167 kts | 158° |
| 2026-05-07 21:20 | 41.98825 | 12.20172 | 2475 ft | 168 kts | 158° |
| 2026-05-07 21:20 | 41.97705 | 12.20639 | 2472 ft | 168 kts | 159° |
| 2026-05-07 21:20 | 41.96594 | 12.21110 | 2463 ft | 167 kts | 159° |
| 2026-05-07 21:21 | 41.95488 | 12.21590 | 2287 ft | 166 kts | 159° |
| 2026-05-07 21:21 | 41.94393 | 12.22054 | 2044 ft | 164 kts | 159° |
| 2026-05-07 21:21 | 41.93307 | 12.22509 | 1855 ft | 161 kts | 159° |
| 2026-05-07 21:21 | 41.92244 | 12.22953 | 1613 ft | 160 kts | 159° |
| 2026-05-07 21:22 | 41.91168 | 12.23404 | 1392 ft | 162 kts | 160° |
| 2026-05-07 21:22 | 41.90116 | 12.23840 | 1144 ft | 152 kts | 161° |
| 2026-05-07 21:22 | 41.89147 | 12.24234 | 922 ft | 144 kts | 160° |
| 2026-05-07 21:22 | 41.88187 | 12.24641 | 772 ft | 145 kts | 160° |
| 2026-05-07 21:23 | 41.87239 | 12.25059 | 609 ft | 143 kts | 163° |
| 2026-05-07 21:23 | 41.86292 | 12.25453 | 430 ft | 141 kts | 162° |
| 2026-05-07 21:23 | 41.85346 | 12.25846 | 249 ft | 142 kts | 163° |
| 2026-05-07 21:23 | 41.84415 | 12.26229 | 91 ft | 140 kts | 162° |
| 2026-05-07 21:24 | 41.83544 | 12.26591 | 18 ft | 120 kts | 162° |
| 2026-05-07 21:24 | 41.82809 | 12.26899 | 17 ft | 102 kts | 162° |
| 2026-05-07 21:24 | 41.82248 | 12.27121 | 14 ft | 70 kts | 173° |
| 2026-05-07 21:24 | 41.81844 | 12.27075 | 15 ft | 33 kts | 192° |
| 2026-05-07 21:25 | 41.81635 | 12.27066 | 16 ft | 22 kts | 162° |
| 2026-05-07 21:25 | 41.81490 | 12.27126 | 15 ft | 21 kts | 163° |
| 2026-05-07 21:25 | 41.81350 | 12.27185 | 16 ft | 21 kts | 159° |
| 2026-05-07 21:25 | 41.81215 | 12.27242 | 15 ft | 20 kts | 163° |
| 2026-05-07 21:26 | 41.81088 | 12.27296 | 15 ft | 16 kts | 163° |
| 2026-05-07 21:26 | 41.81008 | 12.27329 | 16 ft | 12 kts | 163° |
| 2026-05-07 21:26 | 41.80930 | 12.27351 | 15 ft | 11 kts | 179° |
| 2026-05-07 21:26 | 41.80851 | 12.27337 | 15 ft | 11 kts | 189° |
| 2026-05-07 21:27 | 41.80773 | 12.27319 | 15 ft | 12 kts | 189° |
| 2026-05-07 21:27 | 41.80695 | 12.27294 | 17 ft | 11 kts | 208° |
| 2026-05-07 21:27 | 41.80652 | 12.27211 | 15 ft | 11 kts | 249° |
| 2026-05-07 21:27 | 41.80625 | 12.27110 | 16 ft | 13 kts | 249° |
| 2026-05-07 21:28 | 41.80588 | 12.26978 | 18 ft | 18 kts | 249° |
| 2026-05-07 21:28 | 41.80539 | 12.26801 | 18 ft | 22 kts | 249° |
| 2026-05-07 21:28 | 41.80481 | 12.26591 | 19 ft | 26 kts | 249° |
| 2026-05-07 21:28 | 41.80418 | 12.26360 | 18 ft | 27 kts | 250° |
| 2026-05-07 21:29 | 41.80356 | 12.26144 | 19 ft | 16 kts | 240° |
| 2026-05-07 21:29 | 41.80260 | 12.26063 | 17 ft | 9 kts | 206° |
| 2026-05-07 21:29 | 41.80204 | 12.26044 | 17 ft | 7 kts | 166° |
| 2026-05-07 21:29 | 41.80190 | 12.26073 | 17 ft | 6 kts | 110° |
| 2026-05-07 21:30 | 41.80199 | 12.26137 | 17 ft | 6 kts | 26° |
| 2026-05-07 21:30 | 41.80236 | 12.26154 | 19 ft | 2 kts | 25° |
| 2026-05-07 21:30 | 41.80242 | 12.26157 | 18 ft | 0 kts | 25° |
| 2026-05-07 21:39 | 41.80257 | 12.26167 | 18 ft | 5 kts | 27° |
| 2026-05-07 21:40 | 41.80306 | 12.26199 | 17 ft | 9 kts | 25° |
| 2026-05-07 21:40 | 41.80335 | 12.26200 | 17 ft | 3 kts | 317° |
| 2026-05-07 21:40 | 41.80353 | 12.26162 | 18 ft | 4 kts | 275° |
| 2026-05-07 21:40 | 41.80326 | 12.26103 | 17 ft | 12 kts | 211° |
| 2026-05-07 21:41 | 41.80226 | 12.26046 | 17 ft | 19 kts | 188° |
| 2026-05-07 21:41 | 41.80191 | 12.26076 | 17 ft | 6 kts | 118° |
| 2026-05-07 21:41 | 41.80179 | 12.26107 | 17 ft | 7 kts | 116° |
| 2026-05-07 21:41 | 41.80176 | 12.26114 | 17 ft | 1 kts | 116° |
| 2026-05-07 21:42 | 41.80160 | 12.26162 | 17 ft | 6 kts | 115° |
| 2026-05-07 21:42 | 41.80158 | 12.26188 | 17 ft | 4 kts | 70° |
| 2026-05-07 21:42 | 41.80202 | 12.26218 | 17 ft | 9 kts | 21° |